MKJP/KIN METAR and TAF weather

Enter ICAO airport designator
Station Type Date Time Source
MKJP METAR 2022/11/26 09:00 UTC NOAA

MKJP 260900Z 34008KT 9999 FEW022 26/22 Q1013


Station Type Date Time Source
MKJP Decoded METAR 2022/11/26 09:00 UTC NOAA

Kingston / Norman Manley, Jamaica (MKJP) 17-56N 076-47W 14M
Nov 26, 2022 - 04:00 AM EST / 2022.11.26 0900 UTC
Wind: from the NNW (340 degrees) at 9 MPH (8 KT):0
Visibility: greater than 7 mile(s):0
Sky conditions: mostly clear
Temperature: 78 F (26 C)
Dew Point: 71 F (22 C)
Relative Humidity: 78%
Pressure (altimeter): 29.91 in. Hg (1013 hPa)
ob: MKJP 260900Z 34008KT 9999 FEW022 26/22 Q1013
cycle: 9

Station Type Date Time Source
MKJP TAF 2022/11/26 06:15 UTC NOAA

TAF MKJP 260515Z 2606/2706 36007KT 9999 FEW022
BECMG 2615/2617 14020KT
TEMPO 2618/2624 SCT020 FEW022CB SCT032
BECMG 2701/2703 36007KT

Example: see airport list